createdAt,value
2019-04-01T00:00:51.829Z,48.43
2019-04-01T00:03:20.244Z,47.10
2019-04-01T00:05:48.736Z,56.30
2019-04-01T00:08:17.126Z,56.50
2019-04-01T00:10:45.534Z,48.73
2019-04-01T00:13:14.892Z,45.50
2019-04-01T00:15:43.286Z,50.10
2019-04-01T00:18:11.702Z,50.57
2019-04-01T00:20:40.122Z,48.23
2019-04-01T00:23:08.633Z,49.33
2019-04-01T00:25:37.206Z,50.17
2019-04-01T00:28:05.619Z,51.10
2019-04-01T00:30:34.027Z,54.80
2019-04-01T00:33:02.709Z,52.90
2019-04-01T00:35:31.123Z,55.07
2019-04-01T00:37:59.552Z,54.37
2019-04-01T00:40:27.969Z,51.10
2019-04-01T00:43:13.058Z,52.10
2019-04-01T00:45:43.125Z,46.70
2019-04-01T00:48:12.464Z,54.67
2019-04-01T00:50:40.871Z,52.20
2019-04-01T00:53:09.278Z,49.17
2019-04-01T00:55:37.691Z,51.67
2019-04-01T00:58:06.086Z,52.63
2019-04-01T01:00:34.507Z,55.43
2019-04-01T01:03:03.911Z,50.30
2019-04-01T01:05:32.322Z,57.33
2019-04-01T01:08:00.731Z,49.10
2019-04-01T01:10:29.197Z,52.43
2019-04-01T01:12:57.626Z,47.93
2019-04-01T01:15:26.037Z,49.43
2019-04-01T01:17:54.474Z,49.67
2019-04-01T01:20:22.853Z,53.50
2019-04-01T01:22:51.292Z,53.60
2019-04-01T01:25:19.756Z,55.50
2019-04-01T01:27:48.167Z,56.50
2019-04-01T01:30:16.633Z,53.80
2019-04-01T01:32:45.045Z,47.83
2019-04-01T01:35:13.625Z,56.20
2019-04-01T01:37:42.043Z,50.57
2019-04-01T01:40:10.525Z,55.57
2019-04-01T01:42:38.933Z,49.20
2019-04-01T01:45:07.663Z,50.00
2019-04-01T01:47:36.083Z,51.37
2019-04-01T01:50:06.609Z,48.87
2019-04-01T01:52:35.093Z,48.57
2019-04-01T01:55:03.493Z,50.93
2019-04-01T01:57:31.908Z,52.57
2019-04-01T02:00:00.502Z,48.67
2019-04-01T02:02:29.008Z,48.17
2019-04-01T02:04:57.431Z,50.17
2019-04-01T02:07:25.889Z,53.77
2019-04-01T02:09:54.316Z,50.77
2019-04-01T02:12:22.705Z,56.63
2019-04-01T02:14:51.111Z,49.47
2019-04-01T02:17:19.513Z,60.20
2019-04-01T02:19:47.916Z,57.37
2019-04-01T02:22:16.345Z,52.67
2019-04-01T02:24:44.732Z,60.80
2019-04-01T02:27:13.153Z,55.50
2019-04-01T02:29:41.538Z,56.90
2019-04-01T02:32:09.968Z,54.73
2019-04-01T02:34:38.382Z,60.60
2019-04-01T02:37:06.786Z,56.90
2019-04-01T02:39:35.188Z,57.47
2019-04-01T02:42:03.967Z,52.90
2019-04-01T02:44:32.377Z,51.17
2019-04-01T02:47:00.777Z,55.27
2019-04-01T02:49:29.174Z,55.50
2019-04-01T02:51:57.581Z,56.57
2019-04-01T02:54:26.016Z,53.30
2019-04-01T02:56:54.577Z,84.60
2019-04-01T02:59:23.839Z,73.90
2019-04-01T03:02:04.499Z,60.77
2019-04-01T03:04:32.893Z,63.60
2019-04-01T03:07:01.286Z,55.47
2019-04-01T03:09:29.714Z,56.07
2019-04-01T03:11:58.107Z,58.47
2019-04-01T03:14:26.524Z,57.10
2019-04-01T03:16:54.894Z,55.47
2019-04-01T03:19:23.311Z,57.70
2019-04-01T03:21:51.747Z,59.43
2019-04-01T03:24:20.221Z,58.03
2019-04-01T03:26:48.636Z,57.77
2019-04-01T03:29:17.053Z,67.27
2019-04-01T03:31:57.617Z,66.93
2019-04-01T03:34:26.089Z,70.03
2019-04-01T03:36:56.416Z,63.77
2019-04-01T03:39:24.814Z,60.13
2019-04-01T03:41:53.206Z,62.50
2019-04-01T03:44:21.622Z,61.57
2019-04-01T03:46:50.024Z,60.20
2019-04-01T03:49:19.357Z,60.63
2019-04-01T03:51:47.752Z,64.47
2019-04-01T03:54:16.173Z,61.23
2019-04-01T03:56:44.578Z,57.40
2019-04-01T03:59:12.999Z,59.73
2019-04-01T04:01:41.396Z,55.87
2019-04-01T04:04:09.806Z,60.13
2019-04-01T04:06:39.118Z,62.47
2019-04-01T04:09:07.535Z,68.30
2019-04-01T04:11:35.941Z,70.37
2019-04-01T04:14:04.354Z,62.83
2019-04-01T04:16:32.747Z,64.90
2019-04-01T04:19:01.149Z,59.43
2019-04-01T04:21:29.558Z,62.20
2019-04-01T04:23:57.966Z,70.93
2019-04-01T04:26:26.374Z,68.50
2019-04-01T04:28:54.781Z,71.07
2019-04-01T04:31:23.191Z,63.80
2019-04-01T04:33:51.602Z,64.60
2019-04-01T04:36:19.992Z,70.50
2019-04-01T04:38:48.410Z,66.97
2019-04-01T04:41:16.826Z,60.70
2019-04-01T04:43:46.164Z,64.80
2019-04-01T04:46:14.570Z,67.90
2019-04-01T04:48:42.959Z,61.77
2019-04-01T04:51:11.376Z,64.70
2019-04-01T04:53:39.776Z,67.43
2019-04-01T04:56:08.177Z,73.23
2019-04-01T04:58:36.583Z,68.33
2019-04-01T05:01:05.147Z,63.23
2019-04-01T05:03:33.535Z,72.80
2019-04-01T05:06:01.937Z,59.67
2019-04-01T05:08:30.337Z,71.93
2019-04-01T05:10:58.765Z,66.33
2019-04-01T05:13:27.153Z,64.50
2019-04-01T05:15:55.583Z,73.07
2019-04-01T05:18:24.060Z,72.73
2019-04-01T05:20:53.130Z,64.10
2019-04-01T05:23:21.994Z,67.53
2019-04-01T05:25:51.412Z,65.60
2019-04-01T05:28:20.483Z,71.07
2019-04-01T05:30:50.805Z,65.17
2019-04-01T05:33:21.982Z,72.93
2019-04-01T05:35:50.473Z,75.10
2019-04-01T05:38:19.115Z,71.83
2019-04-01T05:40:48.642Z,86.97
2019-04-01T05:43:17.112Z,94.27
2019-04-01T05:45:45.523Z,94.40
2019-04-01T05:48:14.979Z,88.03
2019-04-01T05:50:43.549Z,79.80
2019-04-01T05:53:12.033Z,78.23
2019-04-01T05:55:40.463Z,69.37
2019-04-01T05:58:08.867Z,63.57
2019-04-01T06:00:48.040Z,73.23
2019-04-01T06:03:16.414Z,74.87
2019-04-01T06:05:44.882Z,86.17
2019-04-01T06:08:13.354Z,72.47
2019-04-01T06:10:41.843Z,70.93
2019-04-01T06:13:10.238Z,69.50
2019-04-01T06:15:38.728Z,71.10
2019-04-01T06:18:07.129Z,68.03
2019-04-01T06:20:35.529Z,66.97
2019-04-01T06:23:04.070Z,68.63
2019-04-01T06:25:32.482Z,76.97
2019-04-01T06:28:00.946Z,78.77
2019-04-01T06:30:29.417Z,70.07
2019-04-01T06:32:57.954Z,66.53
2019-04-01T06:35:26.427Z,70.33
2019-04-01T06:37:54.882Z,67.13
2019-04-01T06:40:23.355Z,62.37
2019-04-01T06:43:11.124Z,65.03
2019-04-01T06:45:39.617Z,60.17
2019-04-01T06:48:07.998Z,65.50
2019-04-01T06:50:36.416Z,66.27
2019-04-01T06:53:13.644Z,62.63
2019-04-01T06:55:42.120Z,65.90
2019-04-01T06:58:12.117Z,66.50
2019-04-01T07:00:40.720Z,69.50
2019-04-01T07:03:09.128Z,68.97
2019-04-01T07:05:37.605Z,67.67
2019-04-01T07:08:06.027Z,62.33
2019-04-01T07:10:35.368Z,58.23
2019-04-01T07:13:03.857Z,55.70
2019-04-01T07:15:32.256Z,60.07
2019-04-01T07:18:01.048Z,62.00
2019-04-01T07:20:29.439Z,62.33
2019-04-01T07:22:57.932Z,63.13
2019-04-01T07:25:28.046Z,53.27
2019-04-01T07:27:56.472Z,55.93
2019-04-01T07:30:26.807Z,57.90
2019-04-01T07:32:55.213Z,60.33
2019-04-01T07:35:23.632Z,55.37
2019-04-01T07:37:52.383Z,54.30
2019-04-01T07:40:20.868Z,51.93
2019-04-01T07:42:49.349Z,58.23
2019-04-01T07:45:17.821Z,56.63
2019-04-01T07:47:46.416Z,53.80
2019-04-01T07:50:15.283Z,54.63
2019-04-01T07:53:03.149Z,55.57
2019-04-01T07:55:31.629Z,58.30
2019-04-01T07:58:00.079Z,49.90
2019-04-01T08:00:28.462Z,56.17
2019-04-01T08:02:57.248Z,51.37
2019-04-01T08:05:26.227Z,56.70
2019-04-01T08:07:55.132Z,52.40
2019-04-01T08:10:23.536Z,54.57
2019-04-01T08:12:51.961Z,51.67
2019-04-01T08:15:21.527Z,51.73
2019-04-01T08:17:50.112Z,55.23
2019-04-01T08:20:18.683Z,50.80
2019-04-01T08:22:47.464Z,47.20
2019-04-01T08:25:15.887Z,49.13
2019-04-01T08:27:44.300Z,53.80
2019-04-01T08:30:12.850Z,49.23
2019-04-01T08:32:41.329Z,45.93
2019-04-01T08:35:10.069Z,47.60
2019-04-01T08:37:40.514Z,49.73
2019-04-01T08:40:08.939Z,50.97
2019-04-01T08:42:38.267Z,48.27
2019-04-01T08:45:08.109Z,45.33
2019-04-01T08:47:36.598Z,46.90
2019-04-01T08:50:06.760Z,47.20
2019-04-01T08:52:35.679Z,39.30
2019-04-01T08:55:06.435Z,45.30
2019-04-01T08:57:34.999Z,43.00
2019-04-01T09:00:04.629Z,42.40
2019-04-01T09:02:33.047Z,44.47
2019-04-01T09:05:01.444Z,48.43
2019-04-01T09:07:30.000Z,44.80
2019-04-01T09:09:58.530Z,43.43
2019-04-01T09:12:47.805Z,44.27
2019-04-01T09:15:16.338Z,49.63
2019-04-01T09:17:44.763Z,47.10
2019-04-01T09:20:13.230Z,45.43
2019-04-01T09:22:41.668Z,42.43
2019-04-01T09:25:10.076Z,43.40
2019-04-01T09:27:38.498Z,39.83
2019-04-01T09:30:07.857Z,42.60
2019-04-01T09:32:37.192Z,39.47
2019-04-01T09:35:07.137Z,38.97
2019-04-01T09:37:35.551Z,48.40
2019-04-01T09:40:24.807Z,40.30
2019-04-01T09:42:53.228Z,38.97
2019-04-01T09:45:21.652Z,41.23
2019-04-01T09:47:50.057Z,41.57
2019-04-01T09:50:26.520Z,40.53
2019-04-01T09:52:55.023Z,42.33
2019-04-01T09:55:23.429Z,38.40
2019-04-01T09:57:51.842Z,53.73
2019-04-01T10:00:20.684Z,40.50
2019-04-01T10:02:49.403Z,42.37
2019-04-01T10:05:17.843Z,39.90
2019-04-01T10:07:46.366Z,43.63
2019-04-01T10:10:15.098Z,45.37
2019-04-01T10:12:43.521Z,50.57
2019-04-01T10:15:12.473Z,44.57
2019-04-01T10:17:40.939Z,40.77
2019-04-01T10:20:09.486Z,35.90
2019-04-01T10:22:37.879Z,43.80
2019-04-01T10:25:06.450Z,37.67
2019-04-01T10:27:34.865Z,41.07
2019-04-01T10:30:04.924Z,40.93
2019-04-01T10:32:33.328Z,38.30
2019-04-01T10:35:01.761Z,39.00
2019-04-01T10:37:30.167Z,46.90
2019-04-01T10:40:00.403Z,49.20
2019-04-01T10:42:28.715Z,40.67
2019-04-01T10:44:57.131Z,38.93
2019-04-01T10:47:25.585Z,38.20
2019-04-01T10:49:54.150Z,41.07
2019-04-01T10:52:22.615Z,37.43
2019-04-01T10:54:51.062Z,39.17
2019-04-01T10:57:19.466Z,38.40
2019-04-01T10:59:47.973Z,42.77
2019-04-01T11:02:18.418Z,39.53
2019-04-01T11:04:46.598Z,40.40
2019-04-01T11:07:15.066Z,42.67
2019-04-01T11:09:43.507Z,41.00
2019-04-01T11:12:11.916Z,36.53
2019-04-01T11:15:01.596Z,41.83
2019-04-01T11:17:29.991Z,36.60
2019-04-01T11:19:58.582Z,35.37
2019-04-01T11:22:26.997Z,35.60
2019-04-01T11:24:55.427Z,37.50
2019-04-01T11:27:23.828Z,36.47
2019-04-01T11:29:52.246Z,35.13
2019-04-01T11:32:20.876Z,32.43
2019-04-01T11:34:55.870Z,35.17
2019-04-01T11:37:22.507Z,35.23
2019-04-01T11:39:51.023Z,37.90
2019-04-01T11:42:19.446Z,34.63
2019-04-01T11:44:47.891Z,36.70
2019-04-01T11:47:22.611Z,35.70
2019-04-01T11:49:51.082Z,34.47
2019-04-01T11:52:19.588Z,31.40
2019-04-01T11:54:48.025Z,32.97
2019-04-01T11:57:16.418Z,30.53
2019-04-01T11:59:44.846Z,31.23
2019-04-01T12:02:13.247Z,30.90
2019-04-01T12:04:41.659Z,32.30
2019-04-01T12:07:10.056Z,32.17
2019-04-01T12:09:38.480Z,31.73
2019-04-01T12:12:06.874Z,37.43
2019-04-01T12:14:35.603Z,29.97
2019-04-01T12:17:04.005Z,30.00
2019-04-01T12:19:32.436Z,28.00
2019-04-01T12:22:00.843Z,29.73
2019-04-01T12:24:29.259Z,29.03
2019-04-01T12:26:57.659Z,30.10
2019-04-01T12:29:26.172Z,30.13
2019-04-01T12:31:54.568Z,30.00
2019-04-01T12:34:23.260Z,30.43
2019-04-01T12:36:51.662Z,30.93
2019-04-01T12:39:20.096Z,36.80
2019-04-01T12:41:48.517Z,31.40
2019-04-01T12:44:16.938Z,32.60
2019-04-01T12:46:46.375Z,31.70
2019-04-01T12:49:14.855Z,31.33
2019-04-01T12:51:43.322Z,29.10
2019-04-01T12:54:11.745Z,28.30
2019-04-01T12:56:40.161Z,28.47
2019-04-01T12:59:08.571Z,29.30
2019-04-01T13:01:36.992Z,26.43
2019-04-01T13:04:05.483Z,29.67
2019-04-01T13:06:33.909Z,29.10
2019-04-01T13:09:04.088Z,31.90
2019-04-01T13:11:32.596Z,31.70
2019-04-01T13:14:00.989Z,26.83
2019-04-01T13:16:29.480Z,29.20
2019-04-01T13:18:57.881Z,29.20
2019-04-01T13:21:26.323Z,26.10
2019-04-01T13:23:54.784Z,28.90
2019-04-01T13:26:23.207Z,25.43
2019-04-01T13:28:51.608Z,26.87
2019-04-01T13:31:20.042Z,31.30
2019-04-01T13:33:48.458Z,25.50
2019-04-01T13:36:16.886Z,26.73
2019-04-01T13:38:45.299Z,27.67
2019-04-01T13:41:15.620Z,24.20
2019-04-01T13:43:43.884Z,25.33
2019-04-01T13:46:12.307Z,25.40
2019-04-01T13:48:57.874Z,28.13
2019-04-01T13:51:22.975Z,22.13
2019-04-01T13:53:51.377Z,22.93
2019-04-01T13:56:19.813Z,22.47
2019-04-01T13:58:51.312Z,21.60
2019-04-01T14:01:19.725Z,20.10
2019-04-01T14:03:48.195Z,22.53
2019-04-01T14:06:16.631Z,22.17
2019-04-01T14:08:45.025Z,20.20
2019-04-01T14:11:20.676Z,20.10
2019-04-01T14:13:49.417Z,19.30
2019-04-01T14:16:17.836Z,22.27
2019-04-01T14:18:46.245Z,20.43
2019-04-01T14:21:17.477Z,20.37
2019-04-01T14:23:44.789Z,18.13
2019-04-01T14:26:13.467Z,21.57
2019-04-01T14:28:41.874Z,20.97
2019-04-01T14:31:10.297Z,19.73
2019-04-01T14:33:58.471Z,19.57
2019-04-01T14:36:27.362Z,19.60
2019-04-01T14:38:56.724Z,20.87
2019-04-01T14:41:25.153Z,21.07
2019-04-01T14:43:55.133Z,22.77
2019-04-01T14:46:24.201Z,19.63
2019-04-01T14:48:52.643Z,20.83
2019-04-01T14:51:21.059Z,21.60
2019-04-01T14:53:49.503Z,21.93
2019-04-01T14:56:17.933Z,20.70
2019-04-01T14:58:46.357Z,19.50
2019-04-01T15:01:14.843Z,18.77
2019-04-01T15:03:43.316Z,20.13
2019-04-01T15:06:11.729Z,19.23
2019-04-01T15:08:40.140Z,21.90
2019-04-01T15:11:12.226Z,19.87
2019-04-01T15:13:40.842Z,25.50
2019-04-01T15:16:09.245Z,21.60
2019-04-01T15:18:41.273Z,18.97
2019-04-01T15:21:11.657Z,19.23
2019-04-01T15:23:39.960Z,23.50
2019-04-01T15:26:08.391Z,22.00
2019-04-01T15:28:45.884Z,23.90
2019-04-01T15:31:14.304Z,21.30
2019-04-01T15:33:42.715Z,21.83
2019-04-01T15:36:12.525Z,24.53
2019-04-01T15:38:40.937Z,21.37
2019-04-01T15:41:09.385Z,21.00
2019-04-01T15:43:37.822Z,21.97
2019-04-01T15:46:06.572Z,25.20
2019-04-01T15:48:36.617Z,22.80
2019-04-01T15:51:05.222Z,20.90
2019-04-01T15:53:34.733Z,22.70
2019-04-01T15:56:03.396Z,21.43
2019-04-01T15:58:32.788Z,26.40
2019-04-01T16:01:01.329Z,23.00
2019-04-01T16:03:30.095Z,23.63
2019-04-01T16:05:58.500Z,22.80
2019-04-01T16:08:26.925Z,22.90
2019-04-01T16:10:55.331Z,21.00
2019-04-01T16:13:23.759Z,21.70
2019-04-01T16:15:52.202Z,21.07
2019-04-01T16:18:20.659Z,22.63
2019-04-01T16:20:49.058Z,23.67
2019-04-01T16:23:18.924Z,23.43
2019-04-01T16:25:47.649Z,22.63
2019-04-01T16:28:16.137Z,23.00
2019-04-01T16:30:44.535Z,24.47
2019-04-01T16:33:13.050Z,23.53
2019-04-01T16:35:41.439Z,20.73
2019-04-01T16:38:09.941Z,20.03
2019-04-01T16:40:38.329Z,19.10
2019-04-01T16:43:26.096Z,19.33
2019-04-01T16:45:56.011Z,21.30
2019-04-01T16:48:26.425Z,21.30
2019-04-01T16:50:54.828Z,19.57
2019-04-01T16:53:23.248Z,23.67
2019-04-01T16:55:51.725Z,22.13
2019-04-01T16:58:20.126Z,20.10
2019-04-01T17:00:48.527Z,22.30
2019-04-01T17:03:16.972Z,24.20
2019-04-01T17:05:46.813Z,20.50
2019-04-01T17:08:15.438Z,22.87
2019-04-01T17:10:43.891Z,22.83
2019-04-01T17:13:12.304Z,21.73
2019-04-01T17:15:40.707Z,20.73
2019-04-01T17:18:09.101Z,23.10
2019-04-01T17:20:37.540Z,20.97
2019-04-01T17:23:06.046Z,25.37
2019-04-01T17:25:34.557Z,24.63
2019-04-01T17:28:02.966Z,22.23
2019-04-01T17:30:31.474Z,19.60
2019-04-01T17:32:59.904Z,19.60
2019-04-01T17:35:29.340Z,21.77
2019-04-01T17:37:57.740Z,25.00
2019-04-01T17:40:28.166Z,24.73
2019-04-01T17:42:56.569Z,21.40
2019-04-01T17:45:30.881Z,24.20
2019-04-01T17:48:00.644Z,25.67
2019-04-01T17:50:29.466Z,22.77
2019-04-01T17:52:58.962Z,22.40
2019-04-01T17:55:27.397Z,24.40
2019-04-01T17:57:55.777Z,23.20
2019-04-01T18:00:25.922Z,23.30
2019-04-01T18:02:54.331Z,26.10
2019-04-01T18:05:22.898Z,23.37
2019-04-01T18:07:51.343Z,20.83
2019-04-01T18:10:20.625Z,23.63
2019-04-01T18:12:49.990Z,27.50
2019-04-01T18:15:20.677Z,23.83
2019-04-01T18:17:48.668Z,25.07
2019-04-01T18:20:20.035Z,21.53
2019-04-01T18:22:47.390Z,30.43
2019-04-01T18:25:15.868Z,29.27
2019-04-01T18:27:44.357Z,25.77
2019-04-01T18:30:13.397Z,26.47
2019-04-01T18:32:41.823Z,24.67
2019-04-01T18:35:10.361Z,23.03
2019-04-01T18:37:38.797Z,26.00
2019-04-01T18:40:07.347Z,26.17
2019-04-01T18:42:35.766Z,23.13
2019-04-01T18:45:06.899Z,26.20
2019-04-01T18:47:38.650Z,26.50
2019-04-01T18:50:06.906Z,28.87
2019-04-01T18:52:35.415Z,25.70
2019-04-01T18:55:07.885Z,31.80
2019-04-01T18:57:35.717Z,33.67
2019-04-01T19:00:06.618Z,36.30
2019-04-01T19:02:35.048Z,31.67
2019-04-01T19:05:03.573Z,28.27
2019-04-01T19:07:32.012Z,37.17
2019-04-01T19:10:06.329Z,29.60
2019-04-01T19:12:31.485Z,30.93
2019-04-01T19:15:02.376Z,32.67
2019-04-01T19:17:30.028Z,30.97
2019-04-01T19:19:59.356Z,32.67
2019-04-01T19:22:27.801Z,37.30
2019-04-01T19:24:57.025Z,35.00
2019-04-01T19:27:25.528Z,28.97
2019-04-01T19:29:53.917Z,31.40
2019-04-01T19:32:22.410Z,31.60
2019-04-01T19:34:50.815Z,31.30
2019-04-01T19:37:19.245Z,33.43
2019-04-01T19:39:47.637Z,31.13
2019-04-01T19:42:16.053Z,34.10
2019-04-01T19:44:46.424Z,34.27
2019-04-01T19:47:15.131Z,32.00
2019-04-01T19:49:43.611Z,29.13
2019-04-01T19:52:12.028Z,40.50
2019-04-01T19:54:40.445Z,35.40
2019-04-01T19:57:08.930Z,29.27
2019-04-01T19:59:37.326Z,35.40
2019-04-01T20:02:05.759Z,29.63
2019-04-01T20:04:34.180Z,31.70
2019-04-01T20:07:02.927Z,36.93
2019-04-01T20:09:31.401Z,37.10
2019-04-01T20:11:59.823Z,32.40
2019-04-01T20:14:28.514Z,36.50
2019-04-01T20:16:56.941Z,34.10
2019-04-01T20:19:25.339Z,38.63
2019-04-01T20:21:53.742Z,32.57
2019-04-01T20:24:22.395Z,36.03
2019-04-01T20:26:50.809Z,37.83
2019-04-01T20:29:19.222Z,32.73
2019-04-01T20:31:47.637Z,35.70
2019-04-01T20:34:20.047Z,36.07
2019-04-01T20:36:46.186Z,38.87
2019-04-01T20:39:14.598Z,39.40
2019-04-01T20:41:43.034Z,36.60
2019-04-01T20:44:12.395Z,39.40
2019-04-01T20:46:40.863Z,36.97
2019-04-01T20:49:09.283Z,38.70
2019-04-01T20:51:37.692Z,39.20
2019-04-01T20:54:06.168Z,39.77
2019-04-01T20:56:34.607Z,33.90
2019-04-01T20:59:03.070Z,35.63
2019-04-01T21:01:31.550Z,34.03
2019-04-01T21:03:59.945Z,37.17
2019-04-01T21:06:28.352Z,39.23
2019-04-01T21:08:56.765Z,39.27
2019-04-01T21:11:25.162Z,34.63
2019-04-01T21:13:53.596Z,39.93
2019-04-01T21:16:22.004Z,36.10
2019-04-01T21:18:50.415Z,36.20
2019-04-01T21:21:18.817Z,35.00
2019-04-01T21:23:47.238Z,38.70
2019-04-01T21:26:15.314Z,42.83
2019-04-01T21:28:43.728Z,34.57
2019-04-01T21:31:12.135Z,36.10
2019-04-01T21:33:41.158Z,39.07
2019-04-01T21:36:10.613Z,32.37
2019-04-01T21:38:39.036Z,36.40
2019-04-01T21:41:07.432Z,38.20
2019-04-01T21:43:35.845Z,38.60
2019-04-01T21:46:04.322Z,39.40
2019-04-01T21:48:32.749Z,41.70
2019-04-01T21:51:01.141Z,36.63
2019-04-01T21:53:31.046Z,40.47
2019-04-01T21:55:59.767Z,41.57
2019-04-01T21:58:28.211Z,41.40
2019-04-01T22:00:57.674Z,40.03
2019-04-01T22:03:26.150Z,41.40
2019-04-01T22:05:55.550Z,44.70
2019-04-01T22:08:23.988Z,40.87
2019-04-01T22:10:52.384Z,47.93
2019-04-01T22:13:20.803Z,44.60
2019-04-01T22:15:50.023Z,40.00
2019-04-01T22:18:18.915Z,40.10
2019-04-01T22:20:47.593Z,45.03
2019-04-01T22:23:16.041Z,42.90
2019-04-01T22:25:44.483Z,47.03
2019-04-01T22:28:12.898Z,42.20
2019-04-01T22:30:41.286Z,47.57
2019-04-01T22:33:11.117Z,46.60
2019-04-01T22:35:41.583Z,42.10
2019-04-01T22:38:09.835Z,40.50
2019-04-01T22:40:38.250Z,41.93
2019-04-01T22:43:06.663Z,38.33
2019-04-01T22:45:35.062Z,43.57
2019-04-01T22:48:03.471Z,40.10
2019-04-01T22:50:31.873Z,43.37
2019-04-01T22:53:00.279Z,39.77
2019-04-01T22:55:28.766Z,41.37
2019-04-01T22:57:57.177Z,39.17
2019-04-01T23:00:25.706Z,43.83
2019-04-01T23:02:54.116Z,44.10
2019-04-01T23:05:22.510Z,43.90
2019-04-01T23:07:50.935Z,45.90
2019-04-01T23:10:19.377Z,45.03
2019-04-01T23:12:47.841Z,37.70
2019-04-01T23:15:16.395Z,40.83
2019-04-01T23:17:47.469Z,40.30
2019-04-01T23:20:15.878Z,41.17
2019-04-01T23:22:44.371Z,41.43
2019-04-01T23:25:12.951Z,39.60
2019-04-01T23:27:41.360Z,39.50
2019-04-01T23:30:11.679Z,37.73
2019-04-01T23:32:41.895Z,39.80
2019-04-01T23:35:12.255Z,39.77
2019-04-01T23:37:41.023Z,37.13
2019-04-01T23:40:09.679Z,37.90
2019-04-01T23:42:38.303Z,38.10
2019-04-01T23:45:07.228Z,44.67
2019-04-01T23:47:35.610Z,35.40
2019-04-01T23:50:06.466Z,42.03
2019-04-01T23:52:34.867Z,40.83
2019-04-01T23:55:04.417Z,41.00
2019-04-01T23:57:32.814Z,44.07
